Impacts METAR Board
IDs:

KTME - Houston/Executive Ar, TX, US

Updated at: 0200 UTC 01 Nov 2020
Potential Impact None Slight Moderate High
Time 31/14Z 31/15Z 31/16Z 31/17Z 31/18Z 31/19Z 31/20Z 31/21Z 31/22Z 31/23Z 01/00Z 01/01Z 01/02Z
Temp50 57 64 70 72 72 73 75 75 73 64 61 59
Dewpt50 54 52 52 46 46 46 48 48 50 52 52 52
Altim30.25 30.27 30.26 30.25 30.22 30.19 30.16 30.14 30.13 30.12 30.13 30.15 30.16
VIS8 9 10 10 10 10 10 8 10 10 10 10 10
CIG-- -- -- -- -- -- -- -- -- -- -- -- --
CoverCLRCLRCLRCLRCLRCLRCLRCLRCLRCLRCLRSCTCLR
FltCatVFRVFRVFRVFRVFRVFRVFRVFRVFRVFRVFRVFRVFR
WX--------------------------
WDir001102200000190000150
WSpd0 0 3 4 0 0 4 0 5 0 0 0 6
WGst-- -- -- -- -- -- -- -- -- -- -- -- --
Raw hourly METARs
KTME 311355Z AUTO 00000KT 8SM CLR 10/10 A3025 RMK AO2
KTME 311455Z AUTO 00000KT 9SM CLR 14/12 A3027 RMK AO2
KTME 311555Z AUTO 11003KT 10SM CLR 18/11 A3026 RMK AO2
KTME 311655Z AUTO 22004KT 10SM CLR 21/11 A3025 RMK AO2
KTME 311755Z AUTO 00000KT 10SM CLR 22/08 A3022 RMK AO2
KTME 311855Z AUTO 00000KT 10SM CLR 22/08 A3019 RMK AO2
KTME 311955Z AUTO VRB04KT 10SM CLR 23/08 A3016 RMK AO2
KTME 312055Z AUTO 00000KT 8SM CLR 24/09 A3014 RMK AO2
KTME 312155Z AUTO 19005KT 10SM CLR 24/09 A3013 RMK AO2
KTME 312255Z AUTO 00000KT 10SM CLR 23/10 A3012 RMK AO2
KTME 312355Z AUTO 00000KT 10SM CLR 18/11 A3013 RMK AO2
KTME 010055Z AUTO 00000KT 10SM FEW019 SCT026 SCT031 16/11 A3015 RMK AO2
KTME 010155Z AUTO 15006KT 10SM CLR 15/11 A3016 RMK AO2